KFYM/FYM METAR and TAF weather

Enter ICAO airport designator
Station Type Date Time Source
KFYM METAR 2020/07/04 08:15 UTC NOAA

KFYM 040815Z AUTO 02003KT 10SM CLR 22/20 A2992 RMK A01


Station Type Date Time Source
KFYM Decoded METAR 2020/07/04 08:15 UTC NOAA

Station name not available
Jul 04, 2020 - 04:15 AM EDT / 2020.07.04 0815 UTC
Wind: from the NNE (020 degrees) at 3 MPH (3 KT):0
Visibility: 10 mile(s):0
Sky conditions: clear
Temperature: 71 F (22 C)
Dew Point: 68 F (20 C)
Relative Humidity: 88%
Pressure (altimeter): 29.92 in. Hg (1013 hPa)
ob: KFYM 040815Z AUTO 02003KT 10SM CLR 22/20 A2992 RMK A01
cycle: 8

Station Type Date Time Source
KFYM TAF 2009/08/31 19:45 UTC NOAA

METAR KFYM 311945Z AUTO 01006KT 10SM CLR 26/11 A3009
RMK AO1 T02550111 $

Example: see airport list